Time;durP1;ratioP1;P1;durP2;ratioP2;P2;SDS_P1;SDS_P2;PMS_P1;PMS_P2;Temp;Humidity;BMP_temperature;BMP_pressure;BME280_temperature;BME280_humidity;BME280_pressure;Samples;Min_cycle;Max_cycle;Signal;HPM_P1;HPM_P2
2023/09/25 00:00:56;;;;;;;1.45;1.20;;;11.60;1.00;;;;;;5012660;28;20401;-86
2023/09/25 00:03:21;;;;;;;2.00;1.20;;;11.50;1.00;;;;;;5014233;28;20388;-86
2023/09/25 00:05:47;;;;;;;2.10;1.33;;;11.50;1.00;;;;;;5012539;28;20393;-86
2023/09/25 00:08:12;;;;;;;1.47;1.10;;;11.50;1.00;;;;;;5011519;28;20405;-86
2023/09/25 00:10:40;;;;;;;2.27;1.20;;;11.40;1.00;;;;;;5010960;28;20471;-86
2023/09/25 00:13:06;;;;;;;1.80;1.40;;;11.40;1.00;;;;;;5011968;28;20499;-86
2023/09/25 00:15:31;;;;;;;1.40;0.95;;;11.40;1.00;;;;;;5013280;28;20420;-86
2023/09/25 00:17:57;;;;;;;1.80;1.60;;;11.30;1.00;;;;;;5014359;28;20892;-86
2023/09/25 00:20:24;;;;;;;1.90;1.20;;;11.30;1.00;;;;;;5022927;28;20474;-86
2023/09/25 00:22:50;;;;;;;2.45;1.58;;;11.20;1.00;;;;;;5034498;28;20426;-86
2023/09/25 00:25:19;;;;;;;1.83;1.55;;;11.20;1.00;;;;;;5029420;28;20397;-88
2023/09/25 00:27:45;;;;;;;1.70;1.30;;;11.40;1.00;;;;;;5017904;28;20554;-86
2023/09/25 00:30:11;;;;;;;2.30;1.40;;;11.40;1.00;;;;;;5012088;28;20393;-86
2023/09/25 00:32:37;;;;;;;2.38;1.40;;;11.30;1.00;;;;;;5013072;28;20452;-87
2023/09/25 00:35:07;;;;;;;1.50;1.30;;;11.20;1.00;;;;;;5013436;28;20435;-87
2023/09/25 00:37:32;;;;;;;3.20;1.20;;;11.30;1.00;;;;;;5013274;28;20778;-87
2023/09/25 00:40:12;;;;;;;3.87;1.20;;;11.30;1.00;;;;;;5023411;28;20385;-87
2023/09/25 00:42:42;;;;;;;1.25;1.15;;;11.20;1.00;;;;;;5013800;28;20405;-87
2023/09/25 00:45:09;;;;;;;3.60;1.20;;;11.10;1.00;;;;;;5011642;28;20416;-86
2023/09/25 00:47:35;;;;;;;2.60;1.33;;;11.10;1.00;;;;;;5016996;28;20834;-87
2023/09/25 00:50:03;;;;;;;1.52;1.40;;;11.20;1.00;;;;;;5010949;28;20400;-87
2023/09/25 00:52:31;;;;;;;2.83;1.23;;;11.00;1.00;;;;;;5010505;28;20389;-87
2023/09/25 00:54:58;;;;;;;5.30;1.23;;;11.10;1.00;;;;;;5010727;28;20476;-87
2023/09/25 00:57:23;;;;;;;2.38;1.25;;;11.00;1.00;;;;;;5010737;28;20476;-87
2023/09/25 00:59:49;;;;;;;1.70;1.30;;;11.10;1.00;;;;;;5010756;28;20493;-86
2023/09/25 01:02:15;;;;;;;1.50;1.10;;;11.10;1.00;;;;;;5012277;28;20455;-87
2023/09/25 01:04:41;;;;;;;1.50;1.20;;;11.10;1.00;;;;;;5010135;28;20499;-87
2023/09/25 01:07:06;;;;;;;1.80;1.10;;;11.10;1.00;;;;;;5010181;28;20421;-86
2023/09/25 01:09:32;;;;;;;1.52;1.40;;;11.10;1.00;;;;;;5011386;28;20420;-87
2023/09/25 01:11:57;;;;;;;1.33;1.20;;;11.00;1.00;;;;;;5016128;28;20393;-87
2023/09/25 01:14:23;;;;;;;1.90;1.20;;;11.00;1.00;;;;;;5034902;28;20409;-87
2023/09/25 01:16:50;;;;;;;1.60;1.30;;;11.00;1.00;;;;;;5034886;28;20409;-87
2023/09/25 01:19:16;;;;;;;2.05;1.42;;;11.10;1.00;;;;;;5034767;28;20412;-86
2023/09/25 01:21:46;;;;;;;1.60;1.40;;;11.10;1.00;;;;;;5012230;28;20461;-86
2023/09/25 01:24:12;;;;;;;2.70;1.13;;;11.10;1.00;;;;;;5014595;28;20772;-87
2023/09/25 01:26:37;;;;;;;1.92;1.50;;;11.20;1.00;;;;;;5012607;28;20501;-87
2023/09/25 01:29:03;;;;;;;2.20;1.30;;;11.00;1.00;;;;;;5011872;28;20396;-87
2023/09/25 01:31:28;;;;;;;1.50;1.40;;;11.10;1.00;;;;;;5010902;28;20393;-86
2023/09/25 01:33:54;;;;;;;2.07;1.03;;;11.30;1.00;;;;;;5011209;28;20847;-87
2023/09/25 01:36:20;;;;;;;2.10;1.30;;;11.30;1.00;;;;;;5010417;28;20412;-86
2023/09/25 01:38:48;;;;;;;2.10;1.10;;;11.30;1.00;;;;;;5010334;28;20888;-87
2023/09/25 01:41:15;;;;;;;2.20;1.37;;;11.20;1.00;;;;;;5011157;28;20492;-86
2023/09/25 01:43:44;;;;;;;2.88;1.30;;;11.20;1.00;;;;;;5011747;28;20384;-87
2023/09/25 01:46:09;;;;;;;1.97;1.20;;;11.20;1.00;;;;;;5010845;28;21086;-87
2023/09/25 01:48:41;;;;;;;1.90;1.40;;;11.20;1.00;;;;;;5013659;28;20384;-87
2023/09/25 01:51:10;;;;;;;2.25;1.30;;;11.20;1.00;;;;;;5014739;28;20468;-85
2023/09/25 01:53:36;;;;;;;1.50;1.20;;;11.10;1.00;;;;;;5010481;28;20734;-85
2023/09/25 01:56:12;;;;;;;1.35;1.10;;;11.10;1.00;;;;;;5009637;28;20419;-84
2023/09/25 01:58:39;;;;;;;1.45;1.20;;;11.00;1.00;;;;;;4990076;28;20473;-85
2023/09/25 02:01:05;;;;;;;1.73;1.00;;;11.10;1.00;;;;;;4989648;28;20390;-84
2023/09/25 02:03:31;;;;;;;1.67;1.10;;;11.00;1.00;;;;;;5008559;28;20479;-85
2023/09/25 02:05:57;;;;;;;1.53;1.33;;;10.90;1.00;;;;;;5009358;28;20816;-86
2023/09/25 02:08:22;;;;;;;1.90;1.00;;;11.10;1.00;;;;;;5010970;28;20801;-85
2023/09/25 02:10:48;;;;;;;1.30;1.20;;;11.60;1.00;;;;;;5009308;28;20431;-85
2023/09/25 02:13:13;;;;;;;2.50;1.00;;;10.90;1.00;;;;;;5009294;28;20423;-86
2023/09/25 02:15:40;;;;;;;2.90;1.10;;;11.00;1.00;;;;;;5009653;28;20396;-85
2023/09/25 02:18:05;;;;;;;2.17;1.10;;;10.90;1.00;;;;;;5009896;28;20531;-86
2023/09/25 02:20:31;;;;;;;1.40;1.00;;;10.80;1.00;;;;;;5018066;28;20426;-85
2023/09/25 02:22:57;;;;;;;1.25;1.10;;;12.10;1.00;;;;;;5009819;28;20389;-85
2023/09/25 02:25:22;;;;;;;1.00;0.90;;;10.70;1.00;;;;;;5009464;28;20439;-86
2023/09/25 02:27:48;;;;;;;1.50;1.20;;;10.80;1.00;;;;;;5010676;28;20412;-85
2023/09/25 02:30:14;;;;;;;1.00;0.90;;;10.30;1.00;;;;;;5010512;28;20484;-85
2023/09/25 02:32:42;;;;;;;2.00;1.10;;;10.50;1.00;;;;;;5009102;28;20405;-84
2023/09/25 02:35:08;;;;;;;2.20;1.20;;;10.50;1.00;;;;;;5017066;28;20372;-86
2023/09/25 02:37:35;;;;;;;1.90;1.33;;;10.50;1.00;;;;;;5023447;28;20415;-87
2023/09/25 02:40:00;;;;;;;1.60;1.20;;;10.30;1.00;;;;;;5009135;28;20408;-87
2023/09/25 02:42:26;;;;;;;1.17;1.00;;;10.30;1.00;;;;;;5010618;28;20381;-87
2023/09/25 02:44:52;;;;;;;1.60;1.30;;;10.20;1.00;;;;;;5009395;28;20450;-87
2023/09/25 02:47:18;;;;;;;1.20;1.10;;;10.20;1.00;;;;;;5009147;28;20434;-85
2023/09/25 02:49:43;;;;;;;1.80;1.48;;;10.10;1.00;;;;;;5010726;28;20895;-85
2023/09/25 02:52:09;;;;;;;2.50;1.30;;;10.10;1.00;;;;;;5013613;28;20395;-85
2023/09/25 02:54:34;;;;;;;1.57;1.40;;;10.10;1.00;;;;;;5016804;28;20396;-85
2023/09/25 02:57:00;;;;;;;2.40;1.50;;;10.00;1.00;;;;;;5018720;28;20388;-85
2023/09/25 02:59:25;;;;;;;1.55;1.35;;;10.00;1.00;;;;;;5013334;28;20503;-84
2023/09/25 03:01:51;;;;;;;2.00;1.30;;;10.00;1.00;;;;;;5012510;28;20397;-85
2023/09/25 03:04:16;;;;;;;1.50;1.30;;;10.10;1.00;;;;;;5012676;28;20409;-85
2023/09/25 03:06:42;;;;;;;1.70;1.20;;;10.00;1.00;;;;;;5012325;28;20911;-85
2023/09/25 03:09:07;;;;;;;1.58;1.25;;;9.90;1.00;;;;;;5012587;28;20385;-85
2023/09/25 03:11:33;;;;;;;1.53;1.13;;;9.90;1.00;;;;;;5012074;28;20412;-85
2023/09/25 03:13:58;;;;;;;2.00;1.30;;;9.80;1.00;;;;;;5018691;28;20405;-85
2023/09/25 03:16:24;;;;;;;1.80;1.20;;;9.70;1.00;;;;;;5038390;23;20443;-77
2023/09/25 03:18:50;;;;;;;2.60;1.80;;;9.60;1.00;;;;;;5014618;28;20448;-78
2023/09/25 03:21:16;;;;;;;1.50;1.35;;;9.50;1.00;;;;;;5030348;28;20486;-78
2023/09/25 03:23:42;;;;;;;1.50;1.40;;;9.50;1.00;;;;;;5020350;28;20904;-78
2023/09/25 03:26:18;;;;;;;1.40;1.27;;;9.40;1.00;;;;;;5012195;28;20393;-78
2023/09/25 03:28:45;;;;;;;2.20;1.50;;;9.30;1.00;;;;;;4993033;28;21007;-78
2023/09/25 03:31:12;;;;;;;3.30;1.50;;;9.30;1.00;;;;;;4994223;28;20461;-78
2023/09/25 03:33:38;;;;;;;1.90;1.50;;;9.20;1.00;;;;;;4995004;28;20406;-78
2023/09/25 03:36:05;;;;;;;1.60;1.23;;;9.40;1.00;;;;;;4994687;28;20445;-78
2023/09/25 03:38:31;;;;;;;2.47;1.40;;;9.40;1.00;;;;;;4993742;28;20403;-77
2023/09/25 03:40:57;;;;;;;1.75;1.50;;;9.40;1.00;;;;;;4994110;28;20391;-77
2023/09/25 03:43:22;;;;;;;2.17;1.60;;;9.20;1.00;;;;;;4992880;28;20413;-77
2023/09/25 03:45:48;;;;;;;2.20;1.60;;;9.30;1.00;;;;;;4994532;28;20401;-80
2023/09/25 03:48:13;;;;;;;3.40;1.77;;;9.30;1.00;;;;;;4996478;28;20406;-78
2023/09/25 03:50:39;;;;;;;1.80;1.60;;;9.10;1.00;;;;;;4998294;28;20405;-78
2023/09/25 03:53:04;;;;;;;2.40;1.50;;;9.00;1.00;;;;;;4999038;28;20393;-77
2023/09/25 03:55:30;;;;;;;2.00;1.60;;;9.00;1.00;;;;;;4998512;28;20406;-78
2023/09/25 03:57:56;;;;;;;2.90;1.50;;;9.10;1.00;;;;;;4999357;28;20407;-77
2023/09/25 04:00:23;;;;;;;1.97;1.30;;;8.90;1.00;;;;;;4997689;28;20386;-78
2023/09/25 04:02:48;;;;;;;3.10;1.70;;;8.80;1.00;;;;;;4995533;28;20468;-78
2023/09/25 04:05:14;;;;;;;1.67;1.53;;;8.90;1.00;;;;;;4993234;28;20402;-78
2023/09/25 04:07:39;;;;;;;2.80;1.90;;;8.80;1.00;;;;;;4994985;28;20890;-78
2023/09/25 04:10:07;;;;;;;2.67;1.98;;;8.80;1.00;;;;;;5002098;28;20431;-78
2023/09/25 04:12:34;;;;;;;2.30;1.75;;;8.80;1.00;;;;;;5003299;28;20426;-78
2023/09/25 04:15:00;;;;;;;2.45;1.40;;;8.80;1.00;;;;;;4997755;28;20390;-79
2023/09/25 04:17:27;;;;;;;2.78;1.70;;;8.80;1.00;;;;;;4994365;28;20413;-77
2023/09/25 04:19:53;;;;;;;5.38;1.67;;;8.90;1.00;;;;;;4998100;28;20409;-78
2023/09/25 04:22:20;;;;;;;1.73;1.63;;;9.00;1.00;;;;;;5013216;28;20845;-78
2023/09/25 04:24:46;;;;;;;1.90;1.35;;;8.90;1.00;;;;;;4998370;28;20398;-78
2023/09/25 04:27:11;;;;;;;4.40;1.70;;;9.00;1.00;;;;;;4994420;28;20416;-78
2023/09/25 04:29:38;;;;;;;2.20;1.30;;;8.90;1.00;;;;;;4993132;28;20382;-78
2023/09/25 04:32:04;;;;;;;2.47;1.50;;;8.90;1.00;;;;;;4991367;28;20484;-78
2023/09/25 04:34:30;;;;;;;2.10;1.80;;;9.00;1.00;;;;;;4994258;28;20395;-78
2023/09/25 04:36:55;;;;;;;1.70;1.60;;;9.10;1.00;;;;;;4991330;28;20391;-78
2023/09/25 04:39:21;;;;;;;2.10;1.90;;;9.10;1.00;;;;;;4992557;28;20925;-78
2023/09/25 04:41:47;;;;;;;2.10;1.77;;;9.10;1.00;;;;;;4992869;28;20398;-78
2023/09/25 04:44:13;;;;;;;2.33;1.60;;;9.10;1.00;;;;;;4992882;28;20419;-78
2023/09/25 04:46:38;;;;;;;2.20;1.65;;;9.00;1.00;;;;;;4991966;28;20501;-77
2023/09/25 04:49:07;;;;;;;1.70;1.50;;;9.00;1.00;;;;;;4992839;28;20449;-78
2023/09/25 04:51:34;;;;;;;2.30;1.60;;;8.70;1.00;;;;;;4991641;28;20386;-78
2023/09/25 04:54:00;;;;;;;2.47;1.90;;;8.80;1.00;;;;;;4988737;28;20426;-78
2023/09/25 04:56:27;;;;;;;1.70;1.60;;;8.90;1.00;;;;;;4992384;28;20886;-78
2023/09/25 04:58:53;;;;;;;2.08;1.88;;;8.70;1.00;;;;;;4992573;28;20394;-78
2023/09/25 05:01:19;;;;;;;2.75;2.03;;;8.60;1.00;;;;;;4992338;28;20394;-78
2023/09/25 05:03:45;;;;;;;4.07;2.70;;;8.50;1.00;;;;;;4995377;28;20416;-76
2023/09/25 05:06:13;;;;;;;3.97;2.38;;;8.50;1.00;;;;;;5005205;28;20382;-77
2023/09/25 05:08:39;;;;;;;3.95;2.25;;;8.50;1.00;;;;;;5005540;28;20394;-77
2023/09/25 05:11:05;;;;;;;2.40;2.13;;;8.50;1.00;;;;;;5004983;28;20480;-76
2023/09/25 05:13:32;;;;;;;3.15;2.30;;;8.50;1.00;;;;;;5003250;28;20382;-78
2023/09/25 05:15:57;;;;;;;2.67;2.20;;;8.50;1.00;;;;;;4996037;28;20402;-78
2023/09/25 05:18:23;;;;;;;5.00;2.10;;;8.50;1.00;;;;;;4993734;28;20394;-78
2023/09/25 05:20:48;;;;;;;2.15;1.95;;;8.50;1.00;;;;;;4996671;28;20399;-79
2023/09/25 05:23:14;;;;;;;2.57;1.70;;;8.40;1.00;;;;;;4993462;28;20394;-79
2023/09/25 05:25:39;;;;;;;2.80;1.80;;;8.30;1.00;;;;;;4991737;28;20882;-79
2023/09/25 05:28:05;;;;;;;3.00;2.20;;;8.30;1.00;;;;;;4993144;28;21009;-78
2023/09/25 05:30:31;;;;;;;2.28;2.08;;;8.30;1.00;;;;;;4993258;28;20492;-79
2023/09/25 05:32:56;;;;;;;3.90;2.10;;;8.40;1.00;;;;;;4990853;28;20756;-79
2023/09/25 05:35:22;;;;;;;4.17;2.20;;;8.60;1.00;;;;;;4987759;28;20932;-78
2023/09/25 05:37:48;;;;;;;2.08;1.80;;;8.60;1.00;;;;;;5000184;28;20433;-78
2023/09/25 05:40:15;;;;;;;3.78;2.17;;;8.70;1.00;;;;;;4989128;28;20489;-79
2023/09/25 05:42:43;;;;;;;2.78;2.15;;;8.50;1.00;;;;;;4998971;28;20386;-79
2023/09/25 05:45:09;;;;;;;2.75;1.80;;;8.40;1.00;;;;;;5001268;28;20783;-79
2023/09/25 05:47:35;;;;;;;2.22;2.00;;;8.30;1.00;;;;;;4999462;28;20980;-78
2023/09/25 05:50:02;;;;;;;2.63;2.00;;;8.30;1.00;;;;;;4996122;28;20402;-77
2023/09/25 05:52:28;;;;;;;2.42;1.80;;;8.30;1.00;;;;;;4998702;28;20391;-78
2023/09/25 05:54:54;;;;;;;1.70;1.60;;;8.30;1.00;;;;;;4995570;28;20484;-80
2023/09/25 05:57:20;;;;;;;2.10;1.77;;;8.40;1.00;;;;;;4992104;28;20472;-79
2023/09/25 05:59:45;;;;;;;2.10;1.50;;;8.30;1.00;;;;;;4998344;28;20398;-78
2023/09/25 06:02:11;;;;;;;1.63;1.52;;;8.40;1.00;;;;;;4998455;28;21152;-78
2023/09/25 06:04:37;;;;;;;2.10;1.70;;;8.50;1.00;;;;;;4996412;28;20458;-78
2023/09/25 06:07:06;;;;;;;2.20;1.40;;;8.50;1.00;;;;;;5000292;28;20413;-78
2023/09/25 06:09:33;;;;;;;3.30;1.75;;;8.50;1.00;;;;;;4999700;28;20406;-78
2023/09/25 06:11:58;;;;;;;6.60;2.90;;;8.60;1.00;;;;;;5001273;28;20832;-78
2023/09/25 06:14:25;;;;;;;3.80;2.10;;;8.60;1.00;;;;;;5000045;28;20429;-78
2023/09/25 06:16:54;;;;;;;2.60;2.10;;;8.70;1.00;;;;;;4997632;28;20456;-78
2023/09/25 06:19:21;;;;;;;2.33;1.98;;;8.70;1.00;;;;;;4999204;28;20430;-78
2023/09/25 06:21:47;;;;;;;2.63;2.30;;;8.80;1.00;;;;;;5000341;28;20499;-78
2023/09/25 06:24:13;;;;;;;3.70;2.10;;;8.90;1.00;;;;;;4999727;28;20405;-78
2023/09/25 06:26:48;;;;;;;4.95;2.50;;;8.90;1.00;;;;;;5000859;28;20402;-78
2023/09/25 06:29:15;;;;;;;5.20;2.55;;;8.90;1.00;;;;;;5003720;28;20438;-79
2023/09/25 06:31:41;;;;;;;3.13;2.15;;;9.10;1.00;;;;;;5002355;28;20405;-79
2023/09/25 06:34:07;;;;;;;6.25;2.63;;;9.20;1.00;;;;;;5000816;28;20501;-78
2023/09/25 06:36:36;;;;;;;4.82;2.63;;;9.20;1.00;;;;;;5002278;28;20394;-78
2023/09/25 06:39:06;;;;;;;3.00;2.38;;;9.20;1.00;;;;;;5002273;28;20438;-78
2023/09/25 06:41:33;;;;;;;4.03;2.70;;;9.30;1.00;;;;;;5001721;28;20401;-78
2023/09/25 06:43:59;;;;;;;3.57;2.63;;;9.30;1.00;;;;;;5004013;28;20481;-78
2023/09/25 06:46:25;;;;;;;4.07;2.47;;;9.40;1.00;;;;;;5003067;28;20394;-78
2023/09/25 06:48:50;;;;;;;3.30;2.50;;;9.50;1.00;;;;;;5003314;28;20398;-79
2023/09/25 06:51:17;;;;;;;4.15;2.10;;;9.50;1.00;;;;;;4999310;28;20516;-78
2023/09/25 06:53:43;;;;;;;2.83;2.20;;;9.60;1.00;;;;;;5004706;28;20394;-78
2023/09/25 06:56:08;;;;;;;4.07;2.50;;;9.70;1.00;;;;;;5002769;28;20398;-79
2023/09/25 06:58:34;;;;;;;4.87;2.90;;;9.80;1.00;;;;;;4999863;28;20405;-79
2023/09/25 07:00:59;;;;;;;3.70;2.80;;;9.90;1.00;;;;;;4994247;28;20814;-79
2023/09/25 07:03:26;;;;;;;4.37;2.70;;;9.90;1.00;;;;;;4994392;28;20402;-79
2023/09/25 07:05:51;;;;;;;4.07;2.80;;;10.00;1.00;;;;;;4994156;28;20770;-79
2023/09/25 07:08:18;;;;;;;3.20;2.60;;;10.10;1.00;;;;;;4994797;28;20506;-79
2023/09/25 07:10:45;;;;;;;3.40;2.53;;;10.20;1.00;;;;;;4993604;28;20767;-79
2023/09/25 07:13:11;;;;;;;3.40;2.40;;;10.30;1.00;;;;;;4993043;28;20398;-80
2023/09/25 07:15:37;;;;;;;3.45;2.10;;;10.30;1.00;;;;;;4992813;28;20984;-81
2023/09/25 07:18:03;;;;;;;3.00;2.00;;;10.40;1.00;;;;;;4994728;28;20814;-79
2023/09/25 07:20:29;;;;;;;3.72;2.20;;;10.50;1.00;;;;;;4994811;28;20926;-80
2023/09/25 07:22:55;;;;;;;2.53;1.90;;;10.70;1.00;;;;;;4995284;28;20415;-80
2023/09/25 07:25:21;;;;;;;2.70;1.80;;;10.80;1.00;;;;;;4994278;28;20387;-78
2023/09/25 07:27:46;;;;;;;2.20;2.00;;;10.80;1.00;;;;;;4995794;28;20411;-79
2023/09/25 07:30:14;;;;;;;2.40;1.80;;;10.90;1.00;;;;;;4993694;28;20399;-78
2023/09/25 07:32:42;;;;;;;2.63;1.80;;;11.00;1.00;;;;;;4994777;28;20387;-78
2023/09/25 07:35:15;;;;;;;1.73;1.60;;;11.10;1.00;;;;;;4995029;28;20399;-78
2023/09/25 07:37:44;;;;;;;2.33;1.90;;;11.30;1.00;;;;;;4995342;28;20391;-78
2023/09/25 07:40:13;;;;;;;2.30;1.50;;;11.50;1.00;;;;;;4995362;28;20758;-79
2023/09/25 07:42:40;;;;;;;1.90;1.33;;;11.60;1.00;;;;;;4995465;28;20391;-78
2023/09/25 07:45:09;;;;;;;2.10;1.80;;;11.70;1.00;;;;;;4993873;28;20438;-78
2023/09/25 07:47:38;;;;;;;2.10;1.73;;;11.90;1.00;;;;;;4995058;28;20402;-78
2023/09/25 07:50:10;;;;;;;2.40;1.50;;;11.80;1.00;;;;;;4995423;28;20478;-78
2023/09/25 07:52:37;;;;;;;1.65;1.33;;;12.00;1.00;;;;;;4994843;28;20762;-78
2023/09/25 07:55:04;;;;;;;1.92;1.40;;;12.20;1.00;;;;;;4994629;28;20924;-78
2023/09/25 07:57:30;;;;;;;2.33;1.35;;;12.30;1.00;;;;;;4993071;28;20485;-78
2023/09/25 07:59:57;;;;;;;1.90;1.30;;;12.40;1.00;;;;;;4994776;28;20426;-78
2023/09/25 08:02:22;;;;;;;3.70;1.30;;;12.50;1.00;;;;;;4994733;28;20395;-78
2023/09/25 08:04:48;;;;;;;1.10;1.00;;;12.60;1.00;;;;;;4995832;28;20759;-79
2023/09/25 08:07:14;;;;;;;1.90;1.23;;;12.70;1.00;;;;;;4994890;28;20406;-78
2023/09/25 08:09:40;;;;;;;1.30;1.20;;;12.80;1.00;;;;;;4993063;28;20894;-78
2023/09/25 08:12:05;;;;;;;3.40;1.30;;;12.90;1.00;;;;;;4994904;28;20386;-78
2023/09/25 08:14:32;;;;;;;2.67;1.10;;;13.00;1.00;;;;;;4994606;28;20505;-78
2023/09/25 08:16:58;;;;;;;1.40;0.98;;;13.00;1.00;;;;;;4995223;28;20410;-78
2023/09/25 08:19:23;;;;;;;1.00;0.90;;;13.10;1.00;;;;;;4995593;28;20774;-79
2023/09/25 08:21:53;;;;;;;2.33;1.30;;;13.30;1.00;;;;;;5013724;28;20442;-78
2023/09/25 08:24:19;;;;;;;2.55;1.52;;;13.60;1.00;;;;;;4996553;28;20449;-78
2023/09/25 08:26:47;;;;;;;3.33;1.80;;;13.90;1.00;;;;;;4994032;28;20415;-78
2023/09/25 08:29:15;;;;;;;1.60;1.50;;;14.10;1.00;;;;;;4993447;28;20562;-78
2023/09/25 08:31:44;;;;;;;2.00;1.65;;;14.10;1.00;;;;;;4994185;28;20766;-80
2023/09/25 08:34:10;;;;;;;2.33;1.73;;;14.20;1.00;;;;;;4992806;28;20973;-78
2023/09/25 08:36:36;;;;;;;2.70;1.98;;;14.40;1.00;;;;;;4993842;28;20724;-78
2023/09/25 08:39:03;;;;;;;2.70;1.70;;;14.40;1.00;;;;;;4992629;28;20782;-79
2023/09/25 08:41:30;;;;;;;2.30;1.60;;;14.30;1.00;;;;;;4993075;28;20406;-78
2023/09/25 08:43:55;;;;;;;4.22;1.80;;;14.30;1.00;;;;;;4993433;28;20442;-78
2023/09/25 08:46:22;;;;;;;3.65;1.85;;;14.40;1.00;;;;;;4994045;28;20909;-79
2023/09/25 08:48:52;;;;;;;3.80;1.90;;;14.50;1.00;;;;;;4992687;28;20482;-78
2023/09/25 08:51:19;;;;;;;2.60;1.70;;;14.60;1.00;;;;;;4993174;28;20433;-79
2023/09/25 08:53:44;;;;;;;3.80;1.90;;;14.60;1.00;;;;;;4992718;28;20758;-78
2023/09/25 08:56:12;;;;;;;4.43;2.00;;;14.50;1.00;;;;;;4993244;28;20386;-79
2023/09/25 08:58:41;;;;;;;3.40;1.50;;;14.60;1.00;;;;;;4991357;28;20398;-78
2023/09/25 09:01:07;;;;;;;2.63;1.45;;;14.60;1.00;;;;;;4992755;28;20422;-78
2023/09/25 09:03:34;;;;;;;4.57;1.70;;;14.70;1.00;;;;;;4993046;28;20453;-79
2023/09/25 09:06:00;;;;;;;4.60;2.20;;;15.00;1.00;;;;;;4993120;28;20391;-78
2023/09/25 09:08:29;;;;;;;4.80;2.10;;;14.80;1.00;;;;;;4992633;28;20822;-79
2023/09/25 09:10:54;;;;;;;4.07;1.50;;;14.90;1.00;;;;;;4992693;28;20398;-78
2023/09/25 09:13:23;;;;;;;4.03;1.58;;;15.10;1.00;;;;;;4991384;28;20445;-78
2023/09/25 09:15:49;;;;;;;3.00;1.80;;;15.20;1.00;;;;;;4991576;28;20398;-78
2023/09/25 09:19:39;;;;;;;;;;;;;;;;;;;;;
2023/09/25 09:33:29;;;;;;;;;;;;;;;;;;;;;
2023/09/25 09:36:32;;;;;;;1.65;1.48;;;16.30;1.00;;;;;;4905683;28;20397;-85
2023/09/25 10:07:12;;;;;;;1.70;1.45;;;16.40;1.00;;;;;;5019822;28;20450;-85
2023/09/25 10:09:57;;;;;;;1.70;1.30;;;16.60;1.00;;;;;;5019485;28;20996;-86
2023/09/25 10:12:48;;;;;;;2.70;1.05;;;16.60;1.00;;;;;;5017575;28;20927;-86
2023/09/25 10:15:22;;;;;;;2.25;1.48;;;16.70;1.00;;;;;;5018079;28;20487;-86
2023/09/25 10:17:48;;;;;;;2.72;1.40;;;16.70;1.00;;;;;;5041961;23;20455;-84
2023/09/25 10:20:38;;;;;;;1.80;1.10;;;16.70;1.00;;;;;;5041222;28;20399;-83
2023/09/25 10:23:06;;;;;;;1.48;1.00;;;16.90;1.00;;;;;;5037435;28;20427;-83
2023/09/25 10:25:45;;;;;;;3.43;1.20;;;16.90;1.00;;;;;;5037694;28;20473;-82
2023/09/25 10:28:25;;;;;;;2.50;1.00;;;16.90;1.00;;;;;;5030103;28;20400;-81
2023/09/25 10:30:55;;;;;;;1.90;1.20;;;16.90;1.00;;;;;;5017797;28;20401;-83
2023/09/25 10:33:21;;;;;;;2.55;1.10;;;17.00;1.00;;;;;;5017430;28;20391;-83
2023/09/25 10:35:48;;;;;;;1.38;1.10;;;17.20;1.00;;;;;;5017622;28;20967;-83
2023/09/25 10:38:19;;;;;;;2.65;1.27;;;16.20;1.00;;;;;;5016993;28;20480;-83
2023/09/25 10:40:48;;;;;;;1.33;1.10;;;17.30;1.00;;;;;;5016858;28;20423;-83
2023/09/25 10:43:18;;;;;;;1.17;0.98;;;17.40;1.00;;;;;;5018335;28;20384;-83
2023/09/25 10:45:44;;;;;;;1.48;1.20;;;17.30;1.00;;;;;;5016772;28;20396;-82
2023/09/25 10:48:10;;;;;;;2.70;1.00;;;17.60;1.00;;;;;;5028643;28;20401;-80
2023/09/25 10:50:37;;;;;;;1.55;1.00;;;17.90;1.00;;;;;;5038507;28;20401;-80
2023/09/25 10:53:04;;;;;;;1.50;1.10;;;17.80;1.00;;;;;;5037718;28;20435;-80
2023/09/25 10:55:29;;;;;;;1.50;0.95;;;17.90;1.00;;;;;;5038138;28;20395;-82
2023/09/25 10:57:55;;;;;;;1.98;1.40;;;17.90;1.00;;;;;;5038688;28;20397;-82
2023/09/25 11:00:22;;;;;;;2.00;1.13;;;18.10;1.00;;;;;;5038506;28;20458;-80
2023/09/25 11:02:47;;;;;;;2.10;1.05;;;18.30;1.00;;;;;;5038530;28;20437;-80
2023/09/25 11:05:13;;;;;;;1.50;1.30;;;18.10;1.00;;;;;;5036583;28;20408;-81
2023/09/25 11:07:39;;;;;;;1.50;1.20;;;18.60;1.00;;;;;;5032113;28;20415;-81
2023/09/25 11:10:07;;;;;;;3.00;1.20;;;18.90;1.00;;;;;;5029601;28;21343;-81
2023/09/25 11:12:33;;;;;;;2.30;1.13;;;19.10;1.00;;;;;;5023074;28;20408;-82
2023/09/25 11:14:59;;;;;;;2.23;1.10;;;19.40;1.00;;;;;;5013160;28;20416;-82
2023/09/25 11:17:26;;;;;;;1.65;1.35;;;19.30;1.00;;;;;;5016507;28;20400;-84
2023/09/25 11:19:52;;;;;;;1.92;1.13;;;19.70;1.00;;;;;;5017350;28;20410;-86
2023/09/25 11:22:21;;;;;;;2.95;1.45;;;20.20;1.00;;;;;;5018541;28;20947;-85
2023/09/25 11:24:58;;;;;;;2.45;1.10;;;21.20;1.00;;;;;;5012990;28;20904;-85
2023/09/25 11:27:23;;;;;;;1.77;0.95;;;22.00;1.00;;;;;;5011510;28;20779;-85
2023/09/25 11:29:49;;;;;;;2.20;1.17;;;21.20;1.00;;;;;;5015652;28;20480;-85
2023/09/25 11:32:16;;;;;;;2.22;1.05;;;21.90;1.00;;;;;;5014561;28;20462;-86
2023/09/25 11:34:43;;;;;;;1.60;1.00;;;22.60;1.00;;;;;;5014965;28;20396;-85
2023/09/25 11:37:20;;;;;;;1.70;1.30;;;22.60;1.00;;;;;;5009442;28;20452;-83
2023/09/25 11:39:46;;;;;;;1.60;1.02;;;22.20;1.00;;;;;;5014139;28;20406;-86
2023/09/25 11:42:11;;;;;;;1.50;1.00;;;22.90;1.00;;;;;;5008215;28;20405;-89
2023/09/25 11:44:43;;;;;;;1.20;0.80;;;23.70;1.00;;;;;;5010800;28;20443;-88
2023/09/25 11:47:08;;;;;;;1.60;1.20;;;23.90;1.00;;;;;;5011876;28;20400;-79
2023/09/25 11:49:34;;;;;;;1.20;1.10;;;23.10;1.00;;;;;;5013104;28;20412;-80
2023/09/25 11:51:59;;;;;;;1.10;1.00;;;22.00;1.00;;;;;;5012875;28;20463;-79
2023/09/25 11:54:25;;;;;;;1.50;1.00;;;22.30;1.00;;;;;;5014672;28;20776;-79
2023/09/25 11:56:51;;;;;;;3.43;1.27;;;22.10;1.00;;;;;;5013750;28;20401;-79
2023/09/25 11:59:16;;;;;;;1.58;0.82;;;22.50;1.00;;;;;;5010348;28;20494;-80
2023/09/25 12:01:42;;;;;;;1.50;1.13;;;22.50;1.00;;;;;;5011077;28;21303;-80
2023/09/25 12:04:12;;;;;;;1.93;1.23;;;22.40;1.00;;;;;;5012999;28;20430;-79
2023/09/25 12:06:37;;;;;;;2.00;1.10;;;22.60;1.00;;;;;;5008442;28;20395;-79
2023/09/25 12:09:11;;;;;;;1.80;1.00;;;21.80;1.00;;;;;;5006845;28;20401;-80
2023/09/25 12:11:40;;;;;;;2.03;1.00;;;21.10;1.00;;;;;;5010520;28;20404;-79
2023/09/25 12:14:06;;;;;;;1.50;0.90;;;21.70;1.00;;;;;;5012731;28;20385;-79
2023/09/25 12:16:33;;;;;;;2.67;1.03;;;21.80;1.00;;;;;;5012582;28;20391;-80
2023/09/25 12:18:59;;;;;;;1.50;1.13;;;21.20;1.00;;;;;;5008421;28;20439;-80
2023/09/25 12:21:24;;;;;;;1.67;1.00;;;21.50;1.00;;;;;;5014680;28;20472;-81
2023/09/25 12:23:50;;;;;;;2.40;1.10;;;21.90;1.00;;;;;;5014363;28;20405;-80
2023/09/25 12:26:16;;;;;;;1.67;1.30;;;22.00;1.00;;;;;;5013611;28;20389;-80
2023/09/25 12:28:42;;;;;;;2.00;0.90;;;22.00;1.00;;;;;;5014319;28;20424;-80
2023/09/25 12:31:07;;;;;;;1.30;1.05;;;22.30;1.00;;;;;;5014052;28;20473;-79
2023/09/25 12:33:33;;;;;;;2.30;1.20;;;21.80;1.00;;;;;;5014504;28;20401;-79
2023/09/25 12:35:59;;;;;;;3.28;1.38;;;21.80;1.00;;;;;;5013444;28;20389;-80
2023/09/25 12:38:26;;;;;;;1.27;1.10;;;22.70;1.00;;;;;;5014261;28;20409;-80
2023/09/25 12:40:51;;;;;;;1.63;1.33;;;22.50;1.00;;;;;;5014899;28;20408;-80
2023/09/25 12:43:17;;;;;;;1.07;0.83;;;22.60;1.00;;;;;;5013786;28;20380;-80
2023/09/25 12:45:42;;;;;;;1.50;1.17;;;22.80;1.00;;;;;;5013175;28;20396;-80
2023/09/25 12:48:08;;;;;;;1.45;1.17;;;22.70;1.00;;;;;;5012481;28;20396;-88
2023/09/25 12:50:34;;;;;;;2.08;1.00;;;22.50;1.00;;;;;;5012986;28;20401;-88
2023/09/25 12:52:59;;;;;;;1.60;1.00;;;23.10;1.00;;;;;;5015159;28;20464;-89
2023/09/25 12:55:27;;;;;;;1.50;1.20;;;22.50;1.00;;;;;;5014012;28;20475;-89
2023/09/25 12:57:53;;;;;;;1.90;1.02;;;23.10;1.00;;;;;;5014671;28;20405;-89
2023/09/25 13:00:18;;;;;;;1.40;1.00;;;22.50;1.00;;;;;;5020491;28;20448;-89
2023/09/25 13:02:44;;;;;;;1.33;1.10;;;22.60;1.00;;;;;;5039363;28;20494;-89
2023/09/25 13:05:10;;;;;;;1.35;0.90;;;22.90;1.00;;;;;;5042885;28;20912;-89
2023/09/25 13:07:36;;;;;;;1.08;0.95;;;22.00;1.00;;;;;;5024207;28;20389;-88
2023/09/25 13:10:06;;;;;;;1.10;1.00;;;22.10;1.00;;;;;;5012727;28;20768;-89
2023/09/25 13:12:31;;;;;;;2.60;0.90;;;21.80;1.00;;;;;;5027058;28;20887;-90
2023/09/25 13:15:07;;;;;;;2.00;0.90;;;22.20;1.00;;;;;;5033395;28;20393;-90
2023/09/25 13:17:33;;;;;;;1.60;0.80;;;22.90;1.00;;;;;;5035012;28;21016;-92
2023/09/25 13:20:07;;;;;;;1.70;1.00;;;22.80;1.00;;;;;;5028056;28;21066;-91
2023/09/25 13:22:34;;;;;;;1.85;1.00;;;22.20;1.00;;;;;;5033598;28;20482;-89
2023/09/25 13:24:59;;;;;;;1.83;1.13;;;22.40;1.00;;;;;;5036203;28;20411;-91
2023/09/25 13:27:25;;;;;;;1.90;1.00;;;22.60;1.00;;;;;;5033610;28;20712;-91
2023/09/25 13:29:51;;;;;;;2.30;0.90;;;23.30;1.00;;;;;;5023027;28;20464;-91
2023/09/25 13:32:17;;;;;;;1.70;1.33;;;24.40;1.00;;;;;;5018967;28;20392;-91
2023/09/25 13:34:42;;;;;;;1.48;1.17;;;22.80;1.00;;;;;;5019702;28;20400;-90
2023/09/25 13:37:08;;;;;;;1.10;0.93;;;23.20;1.00;;;;;;5019815;28;20413;-92
2023/09/25 13:39:34;;;;;;;1.20;0.90;;;23.20;1.00;;;;;;5020364;28;20405;-93
2023/09/25 13:42:00;;;;;;;1.70;1.30;;;25.00;1.00;;;;;;5017417;28;20389;-89